createdAt,value
2022-10-22T00:02:35.502Z,6.13
2022-10-22T00:07:59.375Z,7.53
2022-10-22T00:13:21.784Z,4.80
2022-10-22T00:18:43.931Z,5.30
2022-10-22T00:24:07.391Z,6.28
2022-10-22T00:29:28.866Z,7.45
2022-10-22T00:34:50.979Z,4.97
2022-10-22T00:40:15.173Z,6.30
2022-10-22T00:45:37.939Z,6.13
2022-10-22T00:51:02.965Z,9.32
2022-10-22T00:56:26.135Z,6.22
2022-10-22T01:01:49.208Z,7.03
2022-10-22T01:07:19.396Z,6.95
2022-10-22T01:12:53.183Z,4.82
2022-10-22T01:18:23.826Z,5.47
2022-10-22T01:29:15.331Z,6.20
2022-10-22T01:34:43.000Z,4.65
2022-10-22T01:40:06.829Z,6.13
2022-10-22T01:45:31.524Z,5.15
2022-10-22T01:51:09.128Z,5.43
2022-10-22T01:56:52.175Z,7.50
2022-10-22T02:02:27.345Z,5.57
2022-10-22T02:07:52.563Z,7.53
2022-10-22T02:13:19.489Z,6.95
2022-10-22T02:18:46.206Z,6.20
2022-10-22T02:24:09.455Z,6.78
2022-10-22T02:29:37.090Z,5.63
2022-10-22T02:35:02.464Z,5.28
2022-10-22T02:40:24.896Z,6.00
2022-10-22T02:45:50.353Z,8.57
2022-10-22T02:51:13.039Z,5.72
2022-10-22T02:56:34.946Z,5.03
2022-10-22T03:01:56.653Z,6.18
2022-10-22T03:07:19.491Z,8.63
2022-10-22T03:12:41.198Z,5.05
2022-10-22T03:18:02.973Z,5.38
2022-10-22T03:23:26.969Z,8.18
2022-10-22T03:28:49.205Z,6.47
2022-10-22T03:34:12.103Z,8.02
2022-10-22T03:39:36.603Z,7.38
2022-10-22T03:44:58.013Z,11.80
2022-10-22T03:50:19.651Z,5.68
2022-10-22T03:55:43.466Z,5.05
2022-10-22T04:01:08.689Z,6.10
2022-10-22T04:06:31.314Z,7.72
2022-10-22T04:11:54.303Z,6.07
2022-10-22T04:17:16.235Z,6.93
2022-10-22T04:22:38.645Z,10.95
2022-10-22T04:28:02.814Z,6.00
2022-10-22T04:33:24.773Z,5.13
2022-10-22T04:38:48.170Z,9.88
2022-10-22T04:44:13.674Z,7.03
2022-10-22T04:49:37.616Z,7.20
2022-10-22T04:54:59.242Z,9.85
2022-10-22T05:00:22.366Z,7.13
2022-10-22T05:05:43.845Z,6.22
2022-10-22T05:11:12.733Z,5.20
2022-10-22T05:16:36.116Z,7.22
2022-10-22T05:21:59.750Z,7.03
2022-10-22T05:27:21.342Z,8.45
2022-10-22T05:32:44.790Z,11.20
2022-10-22T05:38:06.457Z,7.95
2022-10-22T05:43:28.426Z,5.90
2022-10-22T05:48:52.106Z,6.25
2022-10-22T05:54:19.610Z,7.60
2022-10-22T05:59:41.175Z,9.05
2022-10-22T06:05:04.386Z,7.88
2022-10-22T06:10:26.193Z,6.05
2022-10-22T06:15:47.942Z,7.85
2022-10-22T06:21:12.976Z,8.05
2022-10-22T06:26:34.979Z,5.53
2022-10-22T06:31:56.661Z,8.52
2022-10-22T06:37:19.522Z,7.38
2022-10-22T06:42:41.273Z,7.97
2022-10-22T06:48:03.322Z,9.18
2022-10-22T06:53:26.349Z,5.45
2022-10-22T06:58:48.912Z,6.38
2022-10-22T07:04:11.853Z,4.88
2022-10-22T07:09:34.549Z,4.30
2022-10-22T07:14:56.290Z,5.32
2022-10-22T07:20:18.963Z,4.28
2022-10-22T07:25:41.979Z,5.30
2022-10-22T07:31:03.778Z,7.68
2022-10-22T07:36:25.223Z,7.40
2022-10-22T07:41:47.891Z,4.25
2022-10-22T07:47:09.575Z,3.83
2022-10-22T07:52:31.024Z,4.22
2022-10-22T07:57:54.020Z,3.72
2022-10-22T08:03:17.081Z,5.63
2022-10-22T08:08:38.667Z,6.25
2022-10-22T08:14:01.672Z,2.70
2022-10-22T08:19:23.057Z,5.28
2022-10-22T08:24:44.354Z,2.35
2022-10-22T08:30:09.470Z,2.67
2022-10-22T08:35:30.919Z,2.67
2022-10-22T08:40:55.482Z,3.40
2022-10-22T08:46:42.427Z,3.15
2022-10-22T08:52:04.439Z,2.33
2022-10-22T08:57:39.915Z,2.03
2022-10-22T09:03:19.438Z,1.50
2022-10-22T09:08:43.867Z,1.80
2022-10-22T09:14:06.179Z,1.02
2022-10-22T09:19:40.063Z,2.25
2022-10-22T09:25:18.510Z,1.70
2022-10-22T09:30:41.744Z,3.10
2022-10-22T09:36:07.737Z,1.30
2022-10-22T09:41:30.939Z,1.92
2022-10-22T09:46:52.597Z,1.60
2022-10-22T09:52:41.141Z,1.92
2022-10-22T09:58:02.857Z,2.97
2022-10-22T10:03:27.875Z,1.77
2022-10-22T10:08:51.659Z,1.00
2022-10-22T10:14:20.290Z,2.05
2022-10-22T10:19:52.162Z,4.00
2022-10-22T10:25:27.349Z,1.90
2022-10-22T10:30:55.698Z,1.63
2022-10-22T10:36:24.943Z,3.30
2022-10-22T10:41:56.683Z,1.48
2022-10-22T10:47:34.707Z,2.20
2022-10-22T10:53:04.990Z,3.45
2022-10-22T10:58:38.133Z,0.50
2022-10-22T11:04:25.826Z,0.85
2022-10-22T11:09:52.360Z,1.90
2022-10-22T11:15:26.974Z,0.82
2022-10-22T11:20:58.423Z,3.10
2022-10-22T11:26:30.676Z,1.15
2022-10-22T11:31:55.760Z,1.42
2022-10-22T11:37:18.628Z,1.20
2022-10-22T11:42:45.256Z,1.70
2022-10-22T11:48:18.977Z,1.02
2022-10-22T11:53:40.591Z,0.85
2022-10-22T11:59:03.484Z,3.03
2022-10-22T12:04:42.278Z,0.63
2022-10-22T12:10:07.670Z,3.15
2022-10-22T12:15:30.281Z,1.38
2022-10-22T12:20:54.715Z,0.93
2022-10-22T12:26:27.217Z,1.33
2022-10-22T12:31:48.781Z,1.65
2022-10-22T12:37:14.800Z,3.15
2022-10-22T12:42:38.213Z,1.00
2022-10-22T12:48:01.811Z,1.90
2022-10-22T12:53:28.757Z,3.60
2022-10-22T12:58:54.824Z,1.75
2022-10-22T13:04:23.779Z,1.05
2022-10-22T13:09:47.936Z,1.40
2022-10-22T13:15:34.609Z,2.60
2022-10-22T13:20:58.943Z,1.63
2022-10-22T13:26:22.039Z,1.50
2022-10-22T13:31:48.015Z,2.40
2022-10-22T13:37:10.611Z,3.38
2022-10-22T13:42:33.896Z,1.75
2022-10-22T13:47:57.093Z,2.33
2022-10-22T13:53:21.985Z,4.45
2022-10-22T13:58:46.501Z,2.03
2022-10-22T14:04:12.029Z,2.55
2022-10-22T14:09:33.671Z,2.97
2022-10-22T14:20:22.381Z,1.98
2022-10-22T14:25:44.168Z,3.78
2022-10-22T14:31:07.463Z,1.40
2022-10-22T14:36:29.660Z,3.15
2022-10-22T14:41:51.307Z,4.32
2022-10-22T14:47:16.628Z,3.83
2022-10-22T14:52:39.084Z,2.75
2022-10-22T14:58:03.782Z,1.85
2022-10-22T15:03:49.010Z,3.20
2022-10-22T15:09:22.474Z,3.88
2022-10-22T15:20:59.017Z,3.08
2022-10-22T15:26:22.798Z,4.20
2022-10-22T15:32:07.355Z,3.22
2022-10-22T15:37:41.258Z,4.50
2022-10-22T15:43:10.212Z,2.75
2022-10-22T15:48:35.724Z,3.67
2022-10-22T15:54:11.092Z,3.83
2022-10-22T15:59:35.817Z,5.85
2022-10-22T16:05:32.193Z,6.30
2022-10-22T16:11:01.264Z,5.43
2022-10-22T16:16:38.958Z,6.90
2022-10-22T16:22:13.282Z,7.13
2022-10-22T16:27:58.934Z,6.10
2022-10-22T16:33:39.134Z,4.10
2022-10-22T16:39:21.481Z,7.90
2022-10-22T16:45:07.072Z,5.45
2022-10-22T16:50:33.406Z,10.52
2022-10-22T16:56:00.899Z,18.20
2022-10-22T17:01:30.784Z,7.85
2022-10-22T17:06:57.273Z,10.05
2022-10-22T17:12:27.430Z,6.03
2022-10-22T17:17:58.059Z,6.97
2022-10-22T17:23:26.304Z,7.47
2022-10-22T17:28:53.327Z,7.03
2022-10-22T17:34:32.681Z,8.52
2022-10-22T17:39:59.173Z,6.28
2022-10-22T17:45:22.566Z,6.10
2022-10-22T17:50:50.572Z,5.28
2022-10-22T17:56:20.758Z,6.97
2022-10-22T18:01:50.491Z,6.63
2022-10-22T18:07:24.118Z,9.35
2022-10-22T18:12:48.183Z,6.15
2022-10-22T18:18:20.612Z,5.85
2022-10-22T18:23:51.656Z,7.35
2022-10-22T18:29:21.384Z,4.13
2022-10-22T18:34:45.977Z,5.93
2022-10-22T18:40:14.852Z,9.45
2022-10-22T18:45:47.893Z,8.25
2022-10-22T18:51:18.128Z,8.18
2022-10-22T18:56:43.681Z,7.80
2022-10-22T19:02:18.168Z,9.60
2022-10-22T19:07:43.933Z,9.18
2022-10-22T19:13:11.847Z,4.20
2022-10-22T19:18:44.893Z,5.72
2022-10-22T19:24:20.331Z,5.38
2022-10-22T19:29:56.605Z,6.05
2022-10-22T19:35:22.865Z,5.35
2022-10-22T19:40:45.516Z,4.97
2022-10-22T19:46:14.394Z,9.20
2022-10-22T19:51:42.381Z,4.38
2022-10-22T19:57:13.285Z,5.60
2022-10-22T20:02:45.200Z,4.90
2022-10-22T20:08:13.581Z,6.88
2022-10-22T20:19:11.500Z,6.40
2022-10-22T20:24:40.010Z,5.28
2022-10-22T20:30:07.895Z,6.15
2022-10-22T20:35:37.073Z,5.47
2022-10-22T20:41:07.452Z,3.80
2022-10-22T20:46:47.977Z,5.43
2022-10-22T20:52:36.331Z,5.35
2022-10-22T20:58:09.624Z,8.75
2022-10-22T21:03:48.147Z,7.70
2022-10-22T21:09:32.981Z,9.45
2022-10-22T21:15:14.645Z,6.25
2022-10-22T21:20:40.358Z,8.77
2022-10-22T21:26:09.190Z,9.27
2022-10-22T21:37:16.143Z,9.27
2022-10-22T21:42:49.780Z,10.82
2022-10-22T21:48:18.806Z,10.18
2022-10-22T21:53:48.024Z,9.75
2022-10-22T21:59:18.992Z,19.27
2022-10-22T22:04:42.185Z,18.08
2022-10-22T22:10:08.946Z,12.00
2022-10-22T22:15:47.892Z,10.70
2022-10-22T22:21:20.083Z,8.15
2022-10-22T22:26:49.355Z,8.40
2022-10-22T22:32:20.310Z,6.45
2022-10-22T22:38:03.252Z,6.68
2022-10-22T22:43:30.005Z,4.90
2022-10-22T22:48:57.336Z,5.50
2022-10-22T22:54:25.541Z,5.82
2022-10-22T22:59:52.813Z,7.38
2022-10-22T23:05:21.468Z,4.93
2022-10-22T23:10:48.952Z,9.57
2022-10-22T23:16:16.080Z,11.70
2022-10-22T23:21:48.563Z,5.55
2022-10-22T23:27:14.523Z,4.13
2022-10-22T23:32:43.105Z,5.38
2022-10-22T23:38:41.149Z,7.40
2022-10-22T23:44:05.414Z,6.32
2022-10-22T23:49:31.426Z,5.43
2022-10-22T23:55:06.570Z,11.23
